createdAt,value
2019-02-17T00:00:29.719Z,16.40
2019-02-17T00:02:57.879Z,15.90
2019-02-17T00:05:26.129Z,16.63
2019-02-17T00:07:54.582Z,16.30
2019-02-17T00:10:22.769Z,16.57
2019-02-17T00:12:51.159Z,16.50
2019-02-17T00:15:19.524Z,16.57
2019-02-17T00:17:47.689Z,15.63
2019-02-17T00:20:16.001Z,16.50
2019-02-17T00:22:44.334Z,16.23
2019-02-17T00:25:12.540Z,16.73
2019-02-17T00:27:40.895Z,17.53
2019-02-17T00:30:09.129Z,17.30
2019-02-17T00:32:37.451Z,17.77
2019-02-17T00:35:05.627Z,17.97
2019-02-17T00:37:33.942Z,18.10
2019-02-17T00:40:02.086Z,17.90
2019-02-17T00:42:30.158Z,18.63
2019-02-17T00:44:58.482Z,18.20
2019-02-17T00:47:26.681Z,18.77
2019-02-17T00:49:54.867Z,17.80
2019-02-17T00:52:24.088Z,17.97
2019-02-17T00:54:52.258Z,18.37
2019-02-17T00:57:22.447Z,18.67
2019-02-17T00:59:50.690Z,19.53
2019-02-17T01:02:18.903Z,18.67
2019-02-17T01:04:47.121Z,19.17
2019-02-17T01:07:15.478Z,18.57
2019-02-17T01:09:43.731Z,18.13
2019-02-17T01:12:12.014Z,18.37
2019-02-17T01:14:59.230Z,18.03
2019-02-17T01:17:27.542Z,18.23
2019-02-17T01:19:55.887Z,18.73
2019-02-17T01:22:24.417Z,18.57
2019-02-17T01:24:52.539Z,18.70
2019-02-17T01:27:20.728Z,19.17
2019-02-17T01:29:48.953Z,19.33
2019-02-17T01:32:17.265Z,20.60
2019-02-17T01:34:45.762Z,20.93
2019-02-17T01:37:14.124Z,18.77
2019-02-17T01:39:51.206Z,18.13
2019-02-17T01:42:19.378Z,17.03
2019-02-17T01:44:47.555Z,16.47
2019-02-17T01:47:15.723Z,16.50
2019-02-17T01:49:44.158Z,16.87
2019-02-17T01:52:12.485Z,16.83
2019-02-17T01:54:40.591Z,17.60
2019-02-17T01:57:10.298Z,18.10
2019-02-17T01:59:39.573Z,18.20
2019-02-17T02:02:07.762Z,18.27
2019-02-17T02:04:36.031Z,19.00
2019-02-17T02:07:04.504Z,18.37
2019-02-17T02:09:32.776Z,19.87
2019-02-17T02:12:00.965Z,19.60
2019-02-17T02:14:29.406Z,19.13
2019-02-17T02:16:57.577Z,18.87
2019-02-17T02:19:25.906Z,18.47
2019-02-17T02:21:54.239Z,18.70
2019-02-17T02:24:22.523Z,17.70
2019-02-17T02:26:50.763Z,18.30
2019-02-17T02:29:18.966Z,17.23
2019-02-17T02:31:47.141Z,16.33
2019-02-17T02:34:15.178Z,16.53
2019-02-17T02:36:43.282Z,15.93
2019-02-17T02:39:11.454Z,16.53
2019-02-17T02:41:58.782Z,15.57
2019-02-17T02:44:27.068Z,14.87
2019-02-17T02:46:55.334Z,14.90
2019-02-17T02:49:23.459Z,15.00
2019-02-17T02:51:51.688Z,15.60
2019-02-17T02:54:19.853Z,15.63
2019-02-17T02:56:50.904Z,16.20
2019-02-17T02:59:19.057Z,15.23
2019-02-17T03:01:47.230Z,15.53
2019-02-17T03:04:15.483Z,16.53
2019-02-17T03:06:47.160Z,15.03
2019-02-17T03:09:15.237Z,16.13
2019-02-17T03:11:43.464Z,16.63
2019-02-17T03:14:11.686Z,15.33
2019-02-17T03:16:39.897Z,15.13
2019-02-17T03:19:08.086Z,15.50
2019-02-17T03:21:36.412Z,15.03
2019-02-17T03:24:04.506Z,15.63
2019-02-17T03:26:32.744Z,14.97
2019-02-17T03:29:00.924Z,14.50
2019-02-17T03:31:29.100Z,13.47
2019-02-17T03:33:57.418Z,14.00
2019-02-17T03:36:25.751Z,14.13
2019-02-17T03:38:53.928Z,13.93
2019-02-17T03:41:22.073Z,13.77
2019-02-17T03:43:50.275Z,13.10
2019-02-17T03:46:18.450Z,13.30
2019-02-17T03:48:46.906Z,12.63
2019-02-17T03:51:14.996Z,12.87
2019-02-17T03:53:43.174Z,12.87
2019-02-17T03:56:11.768Z,13.70
2019-02-17T03:58:40.019Z,13.17
2019-02-17T04:01:08.199Z,12.47
2019-02-17T04:03:38.293Z,13.63
2019-02-17T04:06:06.614Z,13.00
2019-02-17T04:08:35.150Z,12.13
2019-02-17T04:11:05.565Z,13.10
2019-02-17T04:13:33.897Z,12.87
2019-02-17T04:16:02.172Z,12.20
2019-02-17T04:18:30.446Z,12.13
2019-02-17T04:20:58.707Z,12.00
2019-02-17T04:23:31.335Z,11.20
2019-02-17T04:25:57.136Z,11.03
2019-02-17T04:28:25.375Z,10.90
2019-02-17T04:30:53.565Z,9.90
2019-02-17T04:33:21.901Z,10.03
2019-02-17T04:35:50.322Z,10.73
2019-02-17T04:38:18.627Z,11.20
2019-02-17T04:40:47.954Z,10.00
2019-02-17T04:43:16.055Z,10.77
2019-02-17T04:45:44.326Z,10.73
2019-02-17T04:48:12.561Z,10.70
2019-02-17T04:50:40.787Z,9.93
2019-02-17T04:53:08.982Z,10.07
2019-02-17T04:55:39.454Z,10.73
2019-02-17T04:58:07.790Z,10.00
2019-02-17T05:00:40.325Z,10.07
2019-02-17T05:03:05.915Z,10.73
2019-02-17T05:05:35.755Z,11.03
2019-02-17T05:08:04.034Z,10.60
2019-02-17T05:10:32.434Z,10.40
2019-02-17T05:13:00.803Z,11.43
2019-02-17T05:15:29.090Z,10.43
2019-02-17T05:17:57.403Z,12.50
2019-02-17T05:20:25.629Z,11.73
2019-02-17T05:22:53.893Z,10.77
2019-02-17T05:25:22.124Z,11.20
2019-02-17T05:27:50.443Z,11.10
2019-02-17T05:30:18.637Z,10.70
2019-02-17T05:32:46.858Z,12.13
2019-02-17T05:35:15.147Z,11.77
2019-02-17T05:37:43.339Z,29.13
2019-02-17T05:40:12.803Z,23.30
2019-02-17T05:42:41.015Z,26.47
2019-02-17T05:45:09.210Z,36.20
2019-02-17T05:47:37.395Z,57.30
2019-02-17T05:50:05.759Z,64.57
2019-02-17T05:52:34.015Z,32.63
2019-02-17T05:55:02.259Z,24.63
2019-02-17T05:57:30.492Z,16.40
2019-02-17T05:59:58.737Z,14.87
2019-02-17T06:02:26.999Z,13.20
2019-02-17T06:04:55.009Z,12.37
2019-02-17T06:07:23.156Z,12.70
2019-02-17T06:09:51.403Z,23.50
2019-02-17T06:12:19.538Z,112.67
2019-02-17T06:14:47.898Z,94.73
2019-02-17T06:17:16.131Z,57.73
2019-02-17T06:19:51.810Z,47.10
2019-02-17T06:22:20.120Z,38.57
2019-02-17T06:24:48.770Z,28.73
2019-02-17T06:27:17.171Z,21.03
2019-02-17T06:29:45.370Z,34.83
2019-02-17T06:32:13.594Z,47.10
2019-02-17T06:34:41.884Z,51.87
2019-02-17T06:37:10.211Z,44.63
2019-02-17T06:39:38.753Z,34.93
2019-02-17T06:42:07.125Z,28.13
2019-02-17T06:44:35.471Z,25.67
2019-02-17T06:47:05.349Z,23.07
2019-02-17T06:49:33.585Z,25.47
2019-02-17T06:52:01.830Z,26.90
2019-02-17T06:54:29.877Z,31.73
2019-02-17T06:57:01.695Z,35.83
2019-02-17T06:59:55.001Z,35.30
2019-02-17T07:02:23.211Z,48.90
2019-02-17T07:05:11.114Z,50.20
2019-02-17T07:07:39.352Z,56.70
2019-02-17T07:10:08.635Z,59.07
2019-02-17T07:12:36.578Z,60.73
2019-02-17T07:15:04.513Z,63.87
2019-02-17T07:17:32.731Z,60.87
2019-02-17T07:20:00.876Z,59.87
2019-02-17T07:22:29.082Z,59.73
2019-02-17T07:24:57.251Z,54.13
2019-02-17T07:27:25.498Z,52.77
2019-02-17T07:29:53.701Z,51.13
2019-02-17T07:32:21.874Z,52.67
2019-02-17T07:34:50.106Z,58.87
2019-02-17T07:37:19.420Z,51.13
2019-02-17T07:39:47.367Z,49.67
2019-02-17T07:42:15.304Z,52.77
2019-02-17T07:44:43.818Z,47.87
2019-02-17T07:47:12.027Z,43.63
2019-02-17T07:49:40.341Z,41.47
2019-02-17T07:52:08.485Z,41.03
2019-02-17T07:54:36.290Z,40.83
2019-02-17T07:57:04.707Z,38.73
2019-02-17T07:59:32.698Z,36.90
2019-02-17T08:02:00.872Z,38.27
2019-02-17T08:04:29.103Z,39.77
2019-02-17T08:06:57.318Z,38.43
2019-02-17T08:09:25.712Z,43.70
2019-02-17T08:11:54.029Z,42.63
2019-02-17T08:14:22.237Z,42.40
2019-02-17T08:16:50.618Z,42.17
2019-02-17T08:19:18.764Z,40.13
2019-02-17T08:21:46.978Z,41.40
2019-02-17T08:24:15.172Z,38.93
2019-02-17T08:26:43.398Z,37.00
2019-02-17T08:29:11.503Z,33.42
2019-02-17T08:31:39.757Z,32.23
2019-02-17T08:34:09.008Z,33.88
2019-02-17T08:36:37.239Z,26.57
2019-02-17T08:39:05.532Z,22.45
2019-02-17T08:41:33.856Z,21.68
2019-02-17T08:44:02.169Z,21.05
2019-02-17T08:46:30.361Z,27.62
2019-02-17T08:48:58.582Z,27.45
2019-02-17T08:51:26.895Z,31.07
2019-02-17T08:53:55.138Z,32.08
2019-02-17T08:56:23.410Z,30.37
2019-02-17T08:58:51.623Z,27.07
2019-02-17T09:01:19.788Z,25.27
2019-02-17T09:03:48.076Z,23.05
2019-02-17T09:06:16.131Z,20.45
2019-02-17T09:08:44.416Z,20.20
2019-02-17T09:11:12.665Z,19.10
2019-02-17T09:13:41.058Z,18.52
2019-02-17T09:16:09.546Z,17.43
2019-02-17T09:18:37.837Z,16.50
2019-02-17T09:21:05.930Z,16.83
2019-02-17T09:23:34.161Z,15.90
2019-02-17T09:26:02.581Z,16.30
2019-02-17T09:28:30.814Z,14.40
2019-02-17T09:30:59.011Z,13.87
2019-02-17T09:33:27.185Z,14.80
2019-02-17T09:35:55.654Z,14.90
2019-02-17T09:38:23.814Z,13.53
2019-02-17T09:40:52.064Z,14.90
2019-02-17T09:43:20.430Z,13.83
2019-02-17T09:45:48.797Z,12.10
2019-02-17T09:48:16.910Z,10.60
2019-02-17T09:50:45.398Z,9.23
2019-02-17T09:53:13.570Z,10.27
2019-02-17T09:55:41.827Z,8.30
2019-02-17T09:58:10.727Z,8.77
2019-02-17T10:00:38.922Z,9.00
2019-02-17T10:03:07.410Z,10.03
2019-02-17T10:05:35.713Z,9.67
2019-02-17T10:08:04.374Z,11.27
2019-02-17T10:10:32.585Z,10.30
2019-02-17T10:13:01.374Z,9.80
2019-02-17T10:15:30.037Z,9.80
2019-02-17T10:17:58.239Z,8.03
2019-02-17T10:20:26.461Z,8.85
2019-02-17T10:22:54.745Z,8.65
2019-02-17T10:25:23.817Z,9.10
2019-02-17T10:27:51.994Z,10.25
2019-02-17T10:30:20.082Z,9.93
2019-02-17T10:32:48.471Z,8.78
2019-02-17T10:35:16.717Z,8.83
2019-02-17T10:37:44.944Z,9.43
2019-02-17T10:40:13.657Z,7.60
2019-02-17T10:42:42.063Z,7.75
2019-02-17T10:45:10.715Z,7.75
2019-02-17T10:47:38.995Z,9.70
2019-02-17T10:50:08.375Z,7.97
2019-02-17T10:52:36.585Z,8.65
2019-02-17T10:55:04.727Z,8.53
2019-02-17T10:57:32.947Z,8.53
2019-02-17T11:00:01.127Z,7.72
2019-02-17T11:02:29.351Z,9.50
2019-02-17T11:04:57.582Z,8.85
2019-02-17T11:07:25.833Z,8.58
2019-02-17T11:09:54.080Z,9.03
2019-02-17T11:12:23.635Z,9.30
2019-02-17T11:14:54.840Z,8.55
2019-02-17T11:17:23.116Z,8.43
2019-02-17T11:19:51.362Z,8.45
2019-02-17T11:22:23.050Z,9.35
2019-02-17T11:24:49.825Z,10.38
2019-02-17T11:27:17.915Z,11.18
2019-02-17T11:29:45.952Z,12.20
2019-02-17T11:32:14.182Z,12.78
2019-02-17T11:34:42.481Z,12.50
2019-02-17T11:37:29.739Z,11.40
2019-02-17T11:39:57.991Z,11.25
2019-02-17T11:42:26.160Z,12.65
2019-02-17T11:44:54.434Z,13.32
2019-02-17T11:47:23.380Z,14.95
2019-02-17T11:49:51.610Z,14.15
2019-02-17T11:52:21.017Z,16.65
2019-02-17T11:54:49.296Z,16.10
2019-02-17T11:57:17.470Z,16.97
2019-02-17T11:59:45.859Z,18.62
2019-02-17T12:02:24.439Z,15.60
2019-02-17T12:04:44.122Z,14.83
2019-02-17T12:07:12.733Z,13.45
2019-02-17T12:09:40.932Z,13.85
2019-02-17T12:12:09.263Z,12.68
2019-02-17T12:14:37.519Z,13.18
2019-02-17T12:17:05.730Z,11.73
2019-02-17T12:19:33.906Z,10.82
2019-02-17T12:22:20.367Z,12.20
2019-02-17T12:24:57.125Z,11.88
2019-02-17T12:27:41.270Z,10.08
2019-02-17T12:30:13.382Z,10.13
2019-02-17T12:32:41.674Z,9.60
2019-02-17T12:35:10.085Z,10.35
2019-02-17T12:37:38.366Z,8.70
2019-02-17T12:40:09.921Z,9.58
2019-02-17T12:42:38.199Z,9.53
2019-02-17T12:45:09.619Z,9.15
2019-02-17T12:47:37.760Z,9.23
2019-02-17T12:50:06.510Z,10.20
2019-02-17T12:52:34.722Z,9.03
2019-02-17T12:55:02.891Z,11.15
2019-02-17T12:57:31.126Z,8.98
2019-02-17T12:59:59.671Z,8.90
2019-02-17T13:02:27.997Z,9.75
2019-02-17T13:04:56.381Z,8.73
2019-02-17T13:07:24.697Z,8.80
2019-02-17T13:09:53.124Z,9.15
2019-02-17T13:12:21.489Z,8.73
2019-02-17T13:14:49.812Z,8.90
2019-02-17T13:17:18.132Z,8.20
2019-02-17T13:19:46.444Z,9.20
2019-02-17T13:22:14.645Z,9.58
2019-02-17T13:24:42.916Z,8.95
2019-02-17T13:27:11.284Z,9.53
2019-02-17T13:29:42.131Z,9.13
2019-02-17T13:32:10.205Z,8.97
2019-02-17T13:34:38.699Z,22.10
2019-02-17T13:37:07.075Z,11.27
2019-02-17T13:39:36.169Z,11.80
2019-02-17T13:42:04.385Z,10.27
2019-02-17T13:44:32.594Z,10.47
2019-02-17T13:47:00.704Z,12.77
2019-02-17T13:49:28.898Z,9.93
2019-02-17T13:51:57.159Z,21.57
2019-02-17T13:54:25.519Z,23.37
2019-02-17T13:56:53.852Z,8.77
2019-02-17T13:59:22.046Z,8.53
2019-02-17T14:01:50.250Z,8.83
2019-02-17T14:04:18.559Z,9.03
2019-02-17T14:06:46.768Z,9.13
2019-02-17T14:09:14.881Z,9.07
2019-02-17T14:11:43.197Z,9.57
2019-02-17T14:14:11.389Z,9.87
2019-02-17T14:16:39.519Z,9.97
2019-02-17T14:19:07.987Z,9.00
2019-02-17T14:21:36.372Z,9.13
2019-02-17T14:24:04.620Z,9.37
2019-02-17T14:26:32.958Z,9.30
2019-02-17T14:29:01.159Z,9.00
2019-02-17T14:31:29.226Z,9.17
2019-02-17T14:33:58.756Z,9.20
2019-02-17T14:36:27.043Z,9.17
2019-02-17T14:38:55.297Z,9.83
2019-02-17T14:41:23.644Z,9.67
2019-02-17T14:43:51.900Z,10.23
2019-02-17T14:46:20.136Z,9.60
2019-02-17T14:48:48.565Z,9.03
2019-02-17T14:51:19.834Z,8.83
2019-02-17T14:53:48.028Z,9.37
2019-02-17T14:56:16.173Z,9.20
2019-02-17T14:58:44.578Z,9.77
2019-02-17T15:01:12.950Z,9.63
2019-02-17T15:03:42.166Z,9.37
2019-02-17T15:06:10.413Z,9.10
2019-02-17T15:08:38.701Z,7.33
2019-02-17T15:11:07.179Z,8.90
2019-02-17T15:13:35.383Z,9.67
2019-02-17T15:16:03.642Z,10.00
2019-02-17T15:18:34.576Z,9.07
2019-02-17T15:21:02.826Z,9.20
2019-02-17T15:23:31.001Z,8.83
2019-02-17T15:25:59.421Z,9.47
2019-02-17T15:28:27.683Z,8.47
2019-02-17T15:30:57.842Z,8.77
2019-02-17T15:33:28.907Z,8.87
2019-02-17T15:35:57.209Z,9.13
2019-02-17T15:38:25.407Z,9.37
2019-02-17T15:40:53.823Z,8.70
2019-02-17T15:43:22.020Z,8.97
2019-02-17T15:45:50.195Z,9.50
2019-02-17T15:48:18.620Z,9.30
2019-02-17T15:50:46.883Z,9.17
2019-02-17T15:53:15.221Z,10.40
2019-02-17T15:55:43.578Z,9.43
2019-02-17T15:58:11.772Z,9.77
2019-02-17T16:00:40.113Z,9.23
2019-02-17T16:03:08.307Z,10.13
2019-02-17T16:05:36.499Z,9.13
2019-02-17T16:08:04.774Z,9.87
2019-02-17T16:10:33.052Z,9.30
2019-02-17T16:13:01.224Z,8.80
2019-02-17T16:15:29.600Z,8.47
2019-02-17T16:17:57.845Z,8.50
2019-02-17T16:20:26.255Z,8.60
2019-02-17T16:22:54.422Z,8.73
2019-02-17T16:25:22.585Z,9.13
2019-02-17T16:27:50.777Z,9.27
2019-02-17T16:30:19.039Z,8.20
2019-02-17T16:32:47.174Z,8.00
2019-02-17T16:35:15.418Z,8.30
2019-02-17T16:37:43.696Z,8.07
2019-02-17T16:40:12.111Z,8.73
2019-02-17T16:42:40.216Z,8.17
2019-02-17T16:45:09.834Z,10.83
2019-02-17T16:47:38.021Z,8.27
2019-02-17T16:50:08.537Z,8.30
2019-02-17T16:52:36.705Z,8.67
2019-02-17T16:55:05.251Z,7.43
2019-02-17T16:57:33.439Z,8.17
2019-02-17T17:00:01.639Z,7.50
2019-02-17T17:02:29.961Z,8.97
2019-02-17T17:04:58.184Z,10.80
2019-02-17T17:07:26.557Z,9.50
2019-02-17T17:09:54.789Z,9.23
2019-02-17T17:12:24.861Z,8.63
2019-02-17T17:14:53.251Z,9.43
2019-02-17T17:17:21.683Z,9.80
2019-02-17T17:19:49.874Z,10.80
2019-02-17T17:22:18.082Z,9.67
2019-02-17T17:24:46.408Z,12.90
2019-02-17T17:27:14.833Z,12.47
2019-02-17T17:29:43.313Z,11.17
2019-02-17T17:32:11.564Z,11.77
2019-02-17T17:34:39.658Z,11.60
2019-02-17T17:37:08.020Z,11.87
2019-02-17T17:39:36.261Z,11.63
2019-02-17T17:42:04.470Z,13.70
2019-02-17T17:44:32.922Z,13.30
2019-02-17T17:47:01.052Z,15.53
2019-02-17T17:49:29.423Z,15.27
2019-02-17T17:51:57.569Z,15.93
2019-02-17T17:54:25.802Z,16.10
2019-02-17T17:56:54.022Z,16.07
2019-02-17T17:59:22.428Z,16.37
2019-02-17T18:01:50.842Z,18.77
2019-02-17T18:04:18.920Z,19.23
2019-02-17T18:06:47.227Z,19.53
2019-02-17T18:09:15.645Z,29.17
2019-02-17T18:11:43.981Z,29.77
2019-02-17T18:14:12.140Z,29.47
2019-02-17T18:16:40.348Z,29.67
2019-02-17T18:19:08.417Z,30.07
2019-02-17T18:21:36.613Z,30.77
2019-02-17T18:24:04.910Z,32.73
2019-02-17T18:26:33.689Z,28.57
2019-02-17T18:29:01.953Z,31.30
2019-02-17T18:31:30.250Z,30.73
2019-02-17T18:33:58.685Z,30.87
2019-02-17T18:36:26.942Z,28.30
2019-02-17T18:38:55.210Z,28.50
2019-02-17T18:41:23.018Z,27.03
2019-02-17T18:43:51.256Z,32.15
2019-02-17T18:46:19.545Z,27.83
2019-02-17T18:48:47.365Z,29.47
2019-02-17T18:51:15.731Z,27.83
2019-02-17T18:53:43.992Z,28.63
2019-02-17T18:56:12.328Z,26.90
2019-02-17T18:58:40.599Z,29.20
2019-02-17T19:01:08.921Z,28.83
2019-02-17T19:03:37.258Z,31.77
2019-02-17T19:06:05.462Z,31.77
2019-02-17T19:08:33.845Z,30.30
2019-02-17T19:11:02.004Z,29.03
2019-02-17T19:13:30.343Z,29.70
2019-02-17T19:15:58.616Z,29.50
2019-02-17T19:18:26.822Z,31.63
2019-02-17T19:20:54.994Z,29.77
2019-02-17T19:23:23.419Z,29.83
2019-02-17T19:25:51.685Z,29.10
2019-02-17T19:28:19.719Z,29.53
2019-02-17T19:30:47.943Z,29.23
2019-02-17T19:33:16.052Z,32.53
2019-02-17T19:35:44.251Z,34.33
2019-02-17T19:38:12.561Z,36.83
2019-02-17T19:40:40.672Z,39.13
2019-02-17T19:43:09.461Z,39.10
2019-02-17T19:45:37.353Z,37.07
2019-02-17T19:48:05.401Z,35.20
2019-02-17T19:50:33.719Z,34.53
2019-02-17T19:53:02.113Z,31.10
2019-02-17T19:55:30.332Z,30.90
2019-02-17T19:57:58.513Z,30.60
2019-02-17T20:00:26.745Z,30.37
2019-02-17T20:03:23.444Z,30.43
2019-02-17T20:05:56.131Z,29.87
2019-02-17T20:08:24.476Z,28.67
2019-02-17T20:10:52.777Z,27.40
2019-02-17T20:13:21.406Z,26.60
2019-02-17T20:15:49.702Z,26.03
2019-02-17T20:18:18.131Z,25.37
2019-02-17T20:20:46.405Z,26.80
2019-02-17T20:23:14.862Z,25.83
2019-02-17T20:25:43.354Z,24.30
2019-02-17T20:28:11.493Z,24.00
2019-02-17T20:30:39.674Z,24.47
2019-02-17T20:33:08.173Z,23.43
2019-02-17T20:35:36.801Z,22.67
2019-02-17T20:38:05.210Z,23.30
2019-02-17T20:40:34.120Z,24.53
2019-02-17T20:43:02.449Z,30.83
2019-02-17T20:45:30.638Z,28.37
2019-02-17T20:47:58.826Z,23.77
2019-02-17T20:50:27.316Z,23.50
2019-02-17T20:52:55.628Z,20.67
2019-02-17T20:55:23.980Z,21.73
2019-02-17T20:58:11.220Z,21.13
2019-02-17T21:00:39.474Z,21.07
2019-02-17T21:03:07.706Z,19.73
2019-02-17T21:05:36.082Z,19.47
2019-02-17T21:08:04.384Z,19.90
2019-02-17T21:10:33.109Z,19.57
2019-02-17T21:13:01.940Z,18.60
2019-02-17T21:15:30.833Z,17.87
2019-02-17T21:18:00.738Z,17.20
2019-02-17T21:20:30.520Z,15.77
2019-02-17T21:23:00.306Z,15.27
2019-02-17T21:25:29.974Z,15.47
2019-02-17T21:28:00.153Z,16.40
2019-02-17T21:30:29.249Z,13.07
2019-02-17T21:32:57.692Z,12.57
2019-02-17T21:35:26.380Z,12.00
2019-02-17T21:37:54.999Z,11.17
2019-02-17T21:40:23.253Z,11.97
2019-02-17T21:42:51.570Z,10.43
2019-02-17T21:45:19.674Z,10.40
2019-02-17T21:47:47.859Z,9.53
2019-02-17T21:50:16.124Z,9.33
2019-02-17T21:52:44.303Z,8.83
2019-02-17T21:55:12.608Z,9.13
2019-02-17T21:57:40.933Z,8.57
2019-02-17T22:00:13.057Z,8.67
2019-02-17T22:02:41.272Z,9.07
2019-02-17T22:05:09.640Z,9.30
2019-02-17T22:07:37.850Z,8.63
2019-02-17T22:10:06.951Z,7.93
2019-02-17T22:12:34.989Z,8.50
2019-02-17T22:15:03.290Z,7.77
2019-02-17T22:17:31.461Z,7.77
2019-02-17T22:19:59.860Z,7.90
2019-02-17T22:22:28.119Z,7.83
2019-02-17T22:24:56.389Z,8.40
2019-02-17T22:27:24.546Z,8.87
2019-02-17T22:29:52.654Z,8.73
2019-02-17T22:32:22.045Z,8.27
2019-02-17T22:34:50.290Z,8.37
2019-02-17T22:37:18.508Z,8.77
2019-02-17T22:39:46.672Z,9.80
2019-02-17T22:42:15.020Z,9.33
2019-02-17T22:44:43.420Z,10.00
2019-02-17T22:47:11.595Z,9.83
2019-02-17T22:49:39.900Z,9.40
2019-02-17T22:52:08.134Z,8.73
2019-02-17T22:54:36.422Z,9.10
2019-02-17T22:57:04.666Z,9.90
2019-02-17T22:59:32.762Z,8.90
2019-02-17T23:02:01.135Z,9.10
2019-02-17T23:04:29.387Z,8.67
2019-02-17T23:06:57.487Z,9.23
2019-02-17T23:09:25.995Z,8.03
2019-02-17T23:11:54.416Z,9.00
2019-02-17T23:14:22.627Z,8.10
2019-02-17T23:16:50.915Z,8.40
2019-02-17T23:19:19.406Z,8.40
2019-02-17T23:21:47.785Z,7.90
2019-02-17T23:24:16.345Z,8.40
2019-02-17T23:26:44.580Z,8.60
2019-02-17T23:29:12.795Z,8.40
2019-02-17T23:31:41.063Z,9.20
2019-02-17T23:34:09.390Z,10.87
2019-02-17T23:36:37.733Z,11.43
2019-02-17T23:39:06.510Z,12.00
2019-02-17T23:41:34.842Z,11.60
2019-02-17T23:44:03.072Z,11.77
2019-02-17T23:46:31.327Z,10.23
2019-02-17T23:48:59.586Z,9.90
2019-02-17T23:51:27.775Z,9.73
2019-02-17T23:53:55.954Z,8.57
2019-02-17T23:56:24.247Z,8.27
2019-02-17T23:58:52.482Z,8.67
